Terminal Aerodrome Forecast
Issued by NWS

Home | Current Version | Previous Version | Text Only | Print | Product List | Glossary On
Versions: 1 2 3 4 5 6 7 8 9 10 11 12 13 14 15 16 17 18 19 20 21 22 23 24 25
000
FTUS41 KALY 020500 RRA
TAFPSF
TAF
KPSF 020551Z 0206/0306 VRB03KT P6SM BKN015 OVC100
      TEMPO 0208/0212 3SM BR SCT015 OVC100
     FM021300 15004KT 4SM -RA BR SCT006 OVC012
     FM021700 12005KT 6SM BR VCSH BKN025 OVC040=

USA.gov is the U.S. government's official web portal to all federal, state and local government web resources and services.